Aviation Digital Data Service (ADDS)

Output produced by METARs form (0454 UTC 16 February 2019)
found at http://www.aviationweather.gov/metar/data/
 
Forecast for: EDDS (STUTTGART/ECHTER, DE)
Text: TAF EDDS 152300Z 1600/1624 VRB03KT CAVOK
Forecast period: 0000 UTC 16 February 2019 to 0000 UTC 17 February 2019
Forecast type: FROM: standard forecast or significant change
Winds: variable direction winds at 3 MPH (3 knots; 1.5 m/s)
Visibility: 6 or more miles 10+ km)
Ceiling: unknown
Clouds: missing
Weather: NSW  (no significant weather)